Latest Weather Observations for West Roebuck

IDW60801

Issued at 10:02 pm WST Thursday 29 January 2015 (issued every 30 minutes, with the page automatically refreshed every 10 minutes)

About weather observations | Map of weather stations | Latest weather observations for WA | Other Formats
Station Details ID: 003096 Name: WEST ROEBUCK Lat: -17.90 Lon: 122.31 Height: 32.0 m
Data from the previous 72 hours. | See also: Recent months for locations in Western Australia
Date/Time
WST
Temp
°C
App
Temp
°C
Dew
Point
Rel
Hum
%
Delta-T
°C
Wind Press
QNH
hPa
Press
MSL
hPa
Rain
since 9 am
mm
Dir
 
Spd
km/h
Gust
km/h
Spd
kts
Gust
kts
29/10:00pm 25.6 - - - - NW 2 6 1 3 - - 0.0
29/09:30pm 25.9 - - - - NNW 7 9 4 5 - - 0.0
29/09:00pm 26.2 - - - - WNW 7 9 4 5 - - 0.0
29/08:30pm 26.4 - - - - W 9 11 5 6 - - 0.0
29/08:00pm 26.8 - - - - WNW 7 9 4 5 - - 0.0
29/07:30pm 27.3 - - - - W 7 11 4 6 - - 0.0
29/07:00pm 27.8 - - - - WNW 9 13 5 7 - - 0.0
29/06:30pm 28.5 - - - - W 13 20 7 11 - - 0.0
29/06:00pm 29.1 - - - - W 17 24 9 13 - - 0.0
29/05:30pm 29.5 - - - - W 17 26 9 14 - - 0.0
29/05:00pm 30.6 - - - - W 17 24 9 13 - - 0.0
29/04:30pm 30.2 - - - - W 19 26 10 14 - - 0.0
29/04:00pm 30.6 - - - - W 19 26 10 14 - - 0.0
29/03:30pm 31.3 - - - - W 17 26 9 14 - - 0.0
29/03:00pm 31.7 - - - - W 17 26 9 14 - - 0.0
29/02:30pm 31.4 - - - - W 17 26 9 14 - - 0.0
29/02:00pm 31.2 - - - - WSW 17 24 9 13 - - 0.0
29/01:30pm 31.7 - - - - W 19 30 10 16 - - 0.0
29/01:00pm 32.3 - - - - W 17 30 9 16 - - 0.0
29/12:30pm 32.1 - - - - W 19 24 10 13 - - 0.0
29/12:00pm 32.0 - - - - W 19 28 10 15 - - 0.0
29/11:30am 32.6 - - - - W 17 26 9 14 - - 0.0
29/11:00am 31.8 - - - - W 15 20 8 11 - - 0.0
29/10:30am 32.0 - - - - W 17 24 9 13 - - 0.0
29/10:00am 32.0 - - - - WNW 15 20 8 11 - - 0.0
29/09:30am 31.8 - - - - WNW 6 11 3 6 - - 0.0
29/09:00am 30.1 - - - - N 7 11 4 6 - - 1.4
29/08:30am 29.0 - - - - NE 7 13 4 7 - - 1.4
29/08:00am 27.6 - - - - NE 11 17 6 9 - - 1.2
29/07:30am 26.2 - - - - NE 17 24 9 13 - - 1.2
29/07:00am 24.7 - - - - NE 13 20 7 11 - - 1.2
29/06:30am 23.0 - - - - NE 11 20 6 11 - - 1.2
29/06:00am 22.2 - - - - NE 13 20 7 11 - - 1.2
29/05:30am 22.0 - - - - ENE 15 24 8 13 - - 1.2
29/05:00am 22.4 - - - - E 24 41 13 22 - - 0.8
29/04:41am 24.0 - - - - E 28 46 15 25 - - 0.4
29/04:30am 25.4 - - - - E 13 43 7 23 - - 0.4
29/04:00am 25.8 - - - - ESE 9 13 5 7 - - 0.4
29/03:30am 25.7 - - - - W 7 9 4 5 - - 0.4
29/03:00am 25.9 - - - - WNW 9 11 5 6 - - 0.4
29/02:30am 26.1 - - - - W 9 11 5 6 - - 0.4
29/02:00am 26.5 - - - - WNW 9 17 5 9 - - 0.4
29/01:30am 26.6 - - - - W 13 17 7 9 - - 0.4
29/01:00am 26.3 - - - - W 11 13 6 7 - - 0.4
29/12:30am 26.6 - - - - W 11 15 6 8 - - 0.4
29/12:00am 26.5 - - - - W 9 13 5 7 - - 0.4
 
Date/Time
WST
Temp
°C
App
Temp
°C
Dew
Point
Rel
Hum
%
Delta-T
°C
Wind Press
QNH
hPa
Press
MSL
hPa
Rain
since 9 am
mm
Dir
 
Spd
km/h
Gust
km/h
Spd
kts
Gust
kts
28/11:30pm 26.7 - - - - W 11 13 6 7 - - 0.4
28/11:00pm 26.7 - - - - W 9 13 5 7 - - 0.4
28/10:30pm 26.9 - - - - W 9 15 5 8 - - 0.4
28/10:00pm 27.1 - - - - W 11 13 6 7 - - 0.4
28/09:30pm 27.0 - - - - W 9 11 5 6 - - 0.4
28/09:00pm 27.2 - - - - W 9 13 5 7 - - 0.4
28/08:30pm 27.5 - - - - W 9 13 5 7 - - 0.4
28/08:00pm 27.8 - - - - WSW 11 15 6 8 - - 0.4
28/07:30pm 28.1 - - - - WSW 11 17 6 9 - - 0.4
28/07:00pm 28.4 - - - - W 15 22 8 12 - - 0.4
28/06:30pm 28.9 - - - - W 17 24 9 13 - - 0.4
28/06:00pm 29.7 - - - - W 17 26 9 14 - - 0.4
28/05:30pm 30.5 - - - - W 20 28 11 15 - - 0.4
28/05:00pm 31.0 - - - - WSW 20 30 11 16 - - 0.4
28/04:30pm 31.5 - - - - WSW 19 26 10 14 - - 0.4
28/04:00pm 31.9 - - - - W 20 30 11 16 - - 0.4
28/03:30pm 32.3 - - - - W 20 30 11 16 - - 0.4
28/03:00pm 32.3 - - - - WSW 19 30 10 16 - - 0.4
28/02:30pm 32.6 - - - - WSW 20 32 11 17 - - 0.4
28/02:00pm 32.7 - - - - WSW 20 30 11 16 - - 0.4
28/01:30pm 33.1 - - - - WSW 17 30 9 16 - - 0.4
28/01:00pm 32.5 - - - - WSW 19 26 10 14 - - 0.4
28/12:30pm 32.4 - - - - WSW 19 30 10 16 - - 0.4
28/12:00pm 32.1 - - - - WSW 20 28 11 15 - - 0.4
28/11:30am 32.4 - - - - WSW 19 26 10 14 - - 0.4
28/11:00am 31.9 - - - - WSW 15 24 8 13 - - 0.2
28/10:30am 30.7 - - - - SW 11 22 6 12 - - 0.2
28/10:00am 29.7 - - - - SW 9 17 5 9 - - 0.2
28/09:30am 31.1 - - - - W 11 15 6 8 - - 0.0
28/09:00am 29.4 - - - - SW 13 17 7 9 - - 0.4
28/08:30am 30.8 - - - - SSW 11 15 6 8 - - 0.4
28/08:00am 28.2 - - - - WSW 9 15 5 8 - - 0.2
28/07:30am 29.9 - - - - SSW 11 20 6 11 - - 0.0
28/07:00am 28.7 - - - - CALM 0 9 0 5 - - 0.0
28/06:30am 26.6 - - - - CALM 0 0 0 0 - - 0.0
28/06:00am 25.2 - - - - NNW 6 7 3 4 - - 0.0
28/05:30am 24.7 - - - - N 9 11 5 6 - - 0.0
28/05:00am 24.5 - - - - NNW 7 9 4 5 - - 0.0
28/04:30am 24.5 - - - - NNW 9 11 5 6 - - 0.0
28/04:00am 24.6 - - - - NNW 7 9 4 5 - - 0.0
28/03:30am 24.6 - - - - NNW 7 9 4 5 - - 0.0
28/03:00am 24.9 - - - - NNW 9 9 5 5 - - 0.0
28/02:30am 24.5 - - - - NNW 7 9 4 5 - - 0.0
28/02:00am 24.2 - - - - NW 7 9 4 5 - - 0.0
28/01:30am 24.5 - - - - NNW 9 9 5 5 - - 0.0
28/01:00am 24.3 - - - - NNW 9 9 5 5 - - 0.0
28/12:30am 24.5 - - - - N 7 7 4 4 - - 0.0
28/12:00am 24.7 - - - - N 7 9 4 5 - - 0.0
 
Date/Time
WST
Temp
°C
App
Temp
°C
Dew
Point
Rel
Hum
%
Delta-T
°C
Wind Press
QNH
hPa
Press
MSL
hPa
Rain
since 9 am
mm
Dir
 
Spd
km/h
Gust
km/h
Spd
kts
Gust
kts
27/11:30pm 24.9 - - - - CALM 0 0 0 0 - - 0.0
27/11:00pm 25.1 - - - - CALM 0 4 0 2 - - 0.0
27/10:30pm 25.4 - - - - NNE 7 9 4 5 - - 0.0
27/10:00pm 25.6 - - - - NNE 7 9 4 5 - - 0.0
27/09:30pm 25.9 - - - - NNE 4 7 2 4 - - 0.0
27/09:00pm 26.2 - - - - NE 9 15 5 8 - - 0.0
27/08:30pm 26.5 - - - - ENE 7 9 4 5 - - 0.0
27/08:00pm 26.7 - - - - E 7 9 4 5 - - 0.0
27/07:30pm 27.2 - - - - NNE 7 9 4 5 - - 0.0
27/07:00pm 28.0 - - - - NW 6 9 3 5 - - 0.0
27/06:30pm 28.6 - - - - WNW 7 11 4 6 - - 0.0
27/06:00pm 29.1 - - - - NNW 9 13 5 7 - - 0.0
27/05:30pm 29.4 - - - - N 11 15 6 8 - - 0.0
27/05:00pm 29.0 - - - - N 11 17 6 9 - - 0.0
27/04:30pm 29.8 - - - - NE 15 22 8 12 - - 0.0
27/04:00pm 32.3 - - - - SW 9 15 5 8 - - 0.0
27/03:30pm 33.3 - - - - WSW 15 20 8 11 - - 0.0
27/03:00pm 33.1 - - - - WSW 15 22 8 12 - - 0.0
27/02:30pm 33.0 - - - - WSW 19 30 10 16 - - 0.0
27/02:00pm 33.1 - - - - WSW 19 24 10 13 - - 0.0
27/01:30pm 33.5 - - - - WSW 17 26 9 14 - - 0.0
27/01:00pm 33.1 - - - - WSW 19 28 10 15 - - 0.0
27/12:30pm 32.8 - - - - WSW 17 28 9 15 - - 0.0
27/12:00pm 33.4 - - - - WSW 19 28 10 15 - - 0.0
27/11:30am 33.2 - - - - WSW 17 28 9 15 - - 0.0
27/11:00am 33.0 - - - - WSW 17 24 9 13 - - 0.0
27/10:30am 31.6 - - - - SW 15 24 8 13 - - 0.0
27/10:00am 31.3 - - - - WSW 17 24 9 13 - - 0.0
27/09:30am 30.6 - - - - SW 13 20 7 11 - - 0.0
27/09:00am 31.4 - - - - SW 13 20 7 11 - - 0.0
27/08:30am 31.0 - - - - WSW 15 22 8 12 - - 0.0
27/08:00am 31.1 - - - - WSW 17 24 9 13 - - 0.0
27/07:30am 30.2 - - - - WSW 15 22 8 12 - - 0.0
27/07:00am 29.6 - - - - WSW 9 17 5 9 - - 0.0
27/06:30am 27.9 - - - - W 9 13 5 7 - - 0.0
27/06:00am 26.2 - - - - W 9 11 5 6 - - 0.0
27/05:30am 25.8 - - - - SSE 4 7 2 4 - - 0.0
27/05:00am 26.1 - - - - SSW 6 7 3 4 - - 0.0
27/04:30am 25.9 - - - - SSW 4 9 2 5 - - 0.0
27/04:00am 26.1 - - - - CALM 0 6 0 3 - - 0.0
27/03:30am 26.1 - - - - WNW 6 9 3 5 - - 0.0
27/03:00am 25.8 - - - - WNW 9 11 5 6 - - 0.0
27/02:30am 25.6 - - - - NW 9 11 5 6 - - 0.0
27/02:00am 25.4 - - - - WNW 4 9 2 5 - - 0.0
27/01:30am 25.5 - - - - WSW 6 7 3 4 - - 0.0
27/01:00am 25.6 - - - - CALM 0 0 0 0 - - 0.0
27/12:30am 25.9 - - - - NNW 7 9 4 5 - - 0.0
27/12:00am 26.2 - - - - NW 6 9 3 5 - - 0.0
 
Date/Time
WST
Temp
°C
App
Temp
°C
Dew
Point
Rel
Hum
%
Delta-T
°C
Wind Press
QNH
hPa
Press
MSL
hPa
Rain
since 9 am
mm
Dir
 
Spd
km/h
Gust
km/h
Spd
kts
Gust
kts
26/11:30pm 26.3 - - - - NNW 6 9 3 5 - - 0.0
26/11:00pm 26.6 - - - - NNW 9 11 5 6 - - 0.0
26/10:30pm 26.8 - - - - NW 11 13 6 7 - - 0.0

Other Formats:

Comma delimited format used in spreadsheet applications
http://www.bom.gov.au/fwo/IDW60801/IDW60801.95204.axf

JavaScript Object Notation format (JSON) in row-major order
http://www.bom.gov.au/fwo/IDW60801/IDW60801.95204.json